Time;durP1;ratioP1;P1;durP2;ratioP2;P2;SDS_P1;SDS_P2;PMS_P1;PMS_P2;Temp;Humidity;BMP_temperature;BMP_pressure;BME280_temperature;BME280_humidity;BME280_pressure;Samples;Min_cycle;Max_cycle;Signal;HPM_P1;HPM_P2
2023/10/14 00:00:47;;;;;;;8.55;6.22;;;;;;;;;;5060167;28;20036;-47
2023/10/14 00:03:29;;;;;;;9.18;6.25;;;;;;;;;;5060119;28;20040;-46
2023/10/14 00:05:55;;;;;;;8.05;6.38;;;;;;;;;;5057281;28;20025;-49
2023/10/14 00:08:24;;;;;;;7.68;6.18;;;;;;;;;;5045233;28;20041;-46
2023/10/14 00:10:50;;;;;;;8.00;6.30;;;;;;;;;;5057552;28;20028;-48
2023/10/14 00:13:16;;;;;;;8.07;5.15;;;;;;;;;;5056609;28;20506;-52
2023/10/14 00:15:43;;;;;;;9.70;6.80;;;;;;;;;;5057709;28;20029;-49
2023/10/14 00:18:08;;;;;;;8.00;5.70;;;;;;;;;;5059945;28;20070;-47
2023/10/14 00:20:35;;;;;;;8.98;6.22;;;;;;;;;;5055874;28;20382;-46
2023/10/14 00:23:07;;;;;;;10.65;6.05;;;;;;;;;;5056611;28;20100;-47
2023/10/14 00:25:34;;;;;;;10.13;7.22;;;;;;;;;;5061469;28;20033;-50
2023/10/14 00:28:05;;;;;;;7.05;5.60;;;;;;;;;;5057223;28;20112;-49
2023/10/14 00:30:31;;;;;;;7.50;5.63;;;;;;;;;;5057662;28;20527;-49
2023/10/14 00:32:57;;;;;;;6.68;6.03;;;;;;;;;;5062695;28;20076;-49
2023/10/14 00:35:24;;;;;;;8.32;5.72;;;;;;;;;;5057063;28;20033;-47
2023/10/14 00:37:52;;;;;;;7.85;6.40;;;;;;;;;;5057859;28;20056;-49
2023/10/14 00:40:24;;;;;;;7.20;6.05;;;;;;;;;;5066055;28;20064;-48
2023/10/14 00:42:51;;;;;;;7.47;5.97;;;;;;;;;;5045229;28;20041;-49
2023/10/14 00:45:20;;;;;;;8.10;5.72;;;;;;;;;;5057318;28;20585;-50
2023/10/14 00:47:49;;;;;;;7.15;6.07;;;;;;;;;;5061552;28;20487;-48
2023/10/14 00:50:32;;;;;;;8.52;5.82;;;;;;;;;;5051796;28;20024;-48
2023/10/14 00:52:58;;;;;;;8.10;5.40;;;;;;;;;;5056641;28;20050;-50
2023/10/14 00:55:27;;;;;;;8.40;5.88;;;;;;;;;;5058782;28;20433;-50
2023/10/14 00:57:55;;;;;;;8.88;5.38;;;;;;;;;;5056475;28;20068;-47
2023/10/14 01:01:07;;;;;;;11.80;7.07;;;;;;;;;;5055513;28;20056;-51
2023/10/14 01:03:09;;;;;;;6.45;5.63;;;;;;;;;;5047851;28;20392;-50
2023/10/14 01:05:38;;;;;;;7.85;6.00;;;;;;;;;;5058254;28;20038;-47
2023/10/14 01:08:08;;;;;;;;;;;;;;;;;;5058554;28;20053;-48
2023/10/14 01:10:34;;;;;;;7.18;5.40;;;;;;;;;;5052023;28;19917;-49
2023/10/14 01:13:06;;;;;;;6.28;4.90;;;;;;;;;;5055448;28;20045;-47
2023/10/14 01:15:33;;;;;;;8.45;5.47;;;;;;;;;;5057737;28;20036;-47
2023/10/14 01:18:00;;;;;;;8.63;6.57;;;;;;;;;;5056715;28;20045;-50
2023/10/14 01:20:35;;;;;;;10.30;5.88;;;;;;;;;;5055528;28;20028;-46
2023/10/14 01:23:07;;;;;;;6.85;6.15;;;;;;;;;;5055672;28;20561;-46
2023/10/14 01:25:33;;;;;;;7.78;6.97;;;;;;;;;;5057948;28;20093;-48
2023/10/14 01:27:59;;;;;;;7.53;5.78;;;;;;;;;;5056653;28;20048;-48
2023/10/14 01:30:32;;;;;;;9.07;5.72;;;;;;;;;;5054016;28;20027;-50
2023/10/14 01:35:54;;;;;;;9.82;5.45;;;;;;;;;;5030753;28;20088;-46
2023/10/14 01:38:20;;;;;;;8.93;6.68;;;;;;;;;;5059477;28;20115;-47
2023/10/14 01:40:54;;;;;;;7.47;5.88;;;;;;;;;;5053205;28;20067;-48
2023/10/14 01:43:24;;;;;;;12.80;8.20;;;;;;;;;;5055734;28;20033;-48
2023/10/14 01:48:25;;;;;;;8.52;5.35;;;;;;;;;;5055635;28;20036;-48
2023/10/14 01:50:57;;;;;;;7.25;5.50;;;;;;;;;;5065717;28;20035;-49
2023/10/14 01:53:27;;;;;;;7.15;5.32;;;;;;;;;;5062277;28;20041;-46
2023/10/14 01:55:55;;;;;;;6.95;5.65;;;;;;;;;;5051266;28;20025;-49
2023/10/14 01:58:22;;;;;;;8.35;5.80;;;;;;;;;;5058338;28;20397;-48
2023/10/14 02:00:53;;;;;;;8.52;5.72;;;;;;;;;;5054449;28;20043;-46
2023/10/14 02:03:22;;;;;;;7.40;6.70;;;;;;;;;;5056260;28;20065;-49
2023/10/14 02:05:51;;;;;;;8.18;6.32;;;;;;;;;;5055102;28;20083;-49
2023/10/14 02:08:21;;;;;;;;;;;;;;;;;;5069660;28;20510;-51
2023/10/14 02:10:50;;;;;;;7.05;6.00;;;;;;;;;;5051590;28;19916;-46
2023/10/14 02:13:16;;;;;;;6.95;5.88;;;;;;;;;;5043760;28;20048;-48
2023/10/14 02:15:49;;;;;;;8.57;6.22;;;;;;;;;;5053148;28;20037;-49
2023/10/14 02:18:23;;;;;;;8.27;7.47;;;;;;;;;;5054908;28;20051;-47
2023/10/14 02:21:05;;;;;;;8.30;5.55;;;;;;;;;;5063415;28;20434;-46
2023/10/14 02:23:44;;;;;;;8.05;5.32;;;;;;;;;;5063423;28;20033;-50
2023/10/14 02:26:33;;;;;;;6.95;6.25;;;;;;;;;;5059400;28;20032;-47
2023/10/14 02:28:59;;;;;;;7.53;5.53;;;;;;;;;;5063940;28;20064;-46
2023/10/14 02:34:05;;;;;;;9.32;6.28;;;;;;;;;;5059817;28;20402;-49
2023/10/14 02:36:34;;;;;;;7.50;5.97;;;;;;;;;;5059504;28;20484;-50
2023/10/14 02:39:00;;;;;;;8.35;6.85;;;;;;;;;;5062456;28;20438;-51
2023/10/14 02:41:32;;;;;;;9.60;6.63;;;;;;;;;;5060682;28;20033;-48
2023/10/14 02:44:44;;;;;;;8.35;7.05;;;;;;;;;;5057653;28;20205;-51
2023/10/14 02:46:54;;;;;;;8.15;5.63;;;;;;;;;;5058330;28;20086;-48
2023/10/14 02:49:24;;;;;;;10.77;6.60;;;;;;;;;;5057628;28;20671;-48
2023/10/14 02:51:52;;;;;;;7.88;6.43;;;;;;;;;;5057520;28;20039;-49
2023/10/14 02:54:27;;;;;;;9.35;6.07;;;;;;;;;;5056262;28;20025;-48
2023/10/14 02:56:59;;;;;;;7.78;6.95;;;;;;;;;;5058425;28;20041;-48
2023/10/14 03:02:16;;;;;;;7.47;5.32;;;;;;;;;;5056821;28;20075;-48
2023/10/14 03:07:28;;;;;;;10.35;5.95;;;;;;;;;;5051072;28;20227;-48
2023/10/14 03:12:39;;;;;;;9.65;6.63;;;;;;;;;;5058096;28;20044;-48
2023/10/14 03:15:18;;;;;;;7.38;5.90;;;;;;;;;;5062965;28;20489;-48
2023/10/14 03:18:05;;;;;;;6.57;5.60;;;;;;;;;;5056707;28;20136;-50
2023/10/14 03:20:34;;;;;;;9.27;7.97;;;;;;;;;;5055127;28;20039;-45
2023/10/14 03:23:18;;;;;;;7.13;6.43;;;;;;;;;;5056682;28;20427;-46
2023/10/14 03:25:46;;;;;;;6.50;5.38;;;;;;;;;;5058871;28;20025;-47
2023/10/14 03:28:13;;;;;;;6.43;5.82;;;;;;;;;;5064894;28;20040;-46
2023/10/14 03:30:44;;;;;;;7.78;5.57;;;;;;;;;;5052805;28;20032;-48
2023/10/14 03:33:10;;;;;;;10.00;6.40;;;;;;;;;;5059983;28;20061;-46
2023/10/14 03:35:37;;;;;;;7.28;5.30;;;;;;;;;;5056697;28;20076;-49
2023/10/14 03:38:14;;;;;;;8.15;5.47;;;;;;;;;;5055829;28;20033;-45
2023/10/14 03:43:17;;;;;;;10.02;7.00;;;;;;;;;;5059124;28;20044;-49
2023/10/14 03:45:53;;;;;;;7.75;6.03;;;;;;;;;;5063703;28;20060;-45
2023/10/14 03:48:20;;;;;;;6.80;6.05;;;;;;;;;;5059326;28;20044;-49
2023/10/14 03:50:46;;;;;;;8.63;6.72;;;;;;;;;;5056882;28;20101;-51
2023/10/14 03:53:12;;;;;;;10.27;6.35;;;;;;;;;;5057803;28;20040;-48
2023/10/14 03:55:38;;;;;;;8.40;6.75;;;;;;;;;;5056453;28;20044;-46
2023/10/14 03:58:04;;;;;;;11.25;6.47;;;;;;;;;;5070107;28;20390;-46
2023/10/14 04:00:39;;;;;;;7.47;5.90;;;;;;;;;;5059170;28;20390;-47
2023/10/14 04:03:11;;;;;;;9.85;7.22;;;;;;;;;;5066952;28;20119;-50
2023/10/14 04:05:45;;;;;;;7.80;5.35;;;;;;;;;;5056918;28;20032;-45
2023/10/14 04:08:13;;;;;;;7.93;5.40;;;;;;;;;;5056423;28;20132;-46
2023/10/14 04:10:43;;;;;;;9.85;5.68;;;;;;;;;;5058020;28;20029;-50
2023/10/14 04:13:14;;;;;;;7.85;5.80;;;;;;;;;;5059682;28;20466;-45
2023/10/14 04:15:52;;;;;;;7.00;4.95;;;;;;;;;;5057196;28;20512;-49
2023/10/14 04:18:24;;;;;;;11.00;5.68;;;;;;;;;;5056779;28;20045;-47
2023/10/14 04:21:35;;;;;;;12.07;7.95;;;;;;;;;;5054457;28;20052;-48
2023/10/14 04:26:48;;;;;;;6.88;5.28;;;;;;;;;;4990830;28;20046;-48
2023/10/14 04:29:39;;;;;;;8.55;6.32;;;;;;;;;;5040971;28;20093;-50
2023/10/14 04:32:48;;;;;;;8.82;5.90;;;;;;;;;;5053979;28;20069;-49
2023/10/14 04:34:58;;;;;;;10.05;5.88;;;;;;;;;;5046005;28;20375;-48
2023/10/14 04:37:27;;;;;;;9.38;6.40;;;;;;;;;;5056499;28;20045;-48
2023/10/14 04:39:58;;;;;;;10.27;5.97;;;;;;;;;;5054288;28;20103;-48
2023/10/14 04:42:36;;;;;;;8.13;6.93;;;;;;;;;;5055499;28;20029;-49
2023/10/14 04:45:03;;;;;;;7.03;4.95;;;;;;;;;;5057369;28;20482;-47
2023/10/14 04:47:38;;;;;;;10.68;5.25;;;;;;;;;;5061829;28;20020;-47
2023/10/14 04:50:14;;;;;;;9.93;6.03;;;;;;;;;;5058118;28;20117;-49
2023/10/14 04:52:48;;;;;;;8.38;6.07;;;;;;;;;;5052852;28;20546;-49
2023/10/14 04:58:05;;;;;;;8.32;5.88;;;;;;;;;;5055408;28;20028;-48
2023/10/14 05:00:32;;;;;;;8.88;6.00;;;;;;;;;;5054984;28;20056;-47
2023/10/14 05:02:59;;;;;;;7.18;5.18;;;;;;;;;;5052478;28;20044;-47
2023/10/14 05:05:32;;;;;;;8.50;7.63;;;;;;;;;;5064413;28;20501;-46
2023/10/14 05:08:04;;;;;;;7.65;5.45;;;;;;;;;;5053880;28;20070;-47
2023/10/14 05:10:30;;;;;;;6.70;5.07;;;;;;;;;;5056620;28;20107;-47
2023/10/14 05:12:56;;;;;;;10.00;7.15;;;;;;;;;;5053321;28;20072;-49
2023/10/14 05:15:26;;;;;;;7.82;5.60;;;;;;;;;;5059280;28;20079;-48
2023/10/14 05:17:52;;;;;;;10.43;6.25;;;;;;;;;;5058215;28;20494;-48
2023/10/14 05:20:29;;;;;;;11.20;5.65;;;;;;;;;;5060873;28;20027;-46
2023/10/14 05:22:56;;;;;;;9.65;5.82;;;;;;;;;;5053378;28;20037;-46
2023/10/14 05:25:27;;;;;;;7.97;5.35;;;;;;;;;;5067162;28;20021;-48
2023/10/14 05:27:58;;;;;;;7.90;7.18;;;;;;;;;;5054387;28;20033;-46
2023/10/14 05:30:24;;;;;;;9.77;6.10;;;;;;;;;;5053749;28;20086;-50
2023/10/14 05:32:53;;;;;;;8.18;5.85;;;;;;;;;;5064793;28;20028;-47
2023/10/14 05:35:22;;;;;;;9.70;5.82;;;;;;;;;;5054394;28;20028;-48
2023/10/14 05:37:47;;;;;;;7.88;5.85;;;;;;;;;;5043179;28;20498;-48
2023/10/14 05:40:13;;;;;;;7.65;5.38;;;;;;;;;;5056244;28;20021;-47
2023/10/14 05:42:45;;;;;;;8.38;6.28;;;;;;;;;;5056882;28;20036;-50
2023/10/14 05:45:11;;;;;;;9.85;5.75;;;;;;;;;;5055578;28;20491;-47
2023/10/14 05:47:39;;;;;;;8.73;5.82;;;;;;;;;;5044907;28;20029;-47
2023/10/14 05:50:08;;;;;;;9.07;6.45;;;;;;;;;;5059378;28;20029;-48
2023/10/14 05:52:33;;;;;;;7.53;5.70;;;;;;;;;;5043425;28;20042;-46
2023/10/14 05:55:01;;;;;;;9.88;6.90;;;;;;;;;;5060010;28;20489;-48
2023/10/14 05:57:29;;;;;;;8.77;6.85;;;;;;;;;;5057509;28;20037;-50
2023/10/14 05:59:57;;;;;;;8.23;6.35;;;;;;;;;;5055622;28;20103;-51
2023/10/14 06:02:22;;;;;;;6.78;5.53;;;;;;;;;;5045659;28;20037;-47
2023/10/14 06:04:50;;;;;;;8.73;5.97;;;;;;;;;;5056994;28;20417;-50
2023/10/14 06:07:18;;;;;;;8.13;5.93;;;;;;;;;;5059070;28;20041;-50
2023/10/14 06:09:47;;;;;;;9.38;5.82;;;;;;;;;;5048459;28;20036;-47
2023/10/14 06:12:13;;;;;;;6.93;5.28;;;;;;;;;;5054727;28;20037;-48
2023/10/14 06:14:39;;;;;;;6.63;5.70;;;;;;;;;;5050049;28;20029;-48
2023/10/14 06:17:07;;;;;;;9.95;6.90;;;;;;;;;;5054866;28;20049;-49
2023/10/14 06:19:36;;;;;;;8.27;7.35;;;;;;;;;;5054516;28;20534;-48
2023/10/14 06:22:02;;;;;;;10.35;5.97;;;;;;;;;;5049201;28;20048;-46
2023/10/14 06:24:28;;;;;;;7.90;6.13;;;;;;;;;;5054902;28;20025;-48
2023/10/14 06:27:07;;;;;;;9.13;6.25;;;;;;;;;;5052558;28;20380;-45
2023/10/14 06:29:32;;;;;;;9.93;6.35;;;;;;;;;;5058230;28;20028;-45
2023/10/14 06:32:01;;;;;;;8.75;6.50;;;;;;;;;;5053148;28;20094;-46
2023/10/14 06:34:27;;;;;;;8.45;7.40;;;;;;;;;;5052684;28;20028;-49
2023/10/14 06:36:53;;;;;;;10.48;5.97;;;;;;;;;;5057994;28;20053;-49
2023/10/14 06:39:26;;;;;;;8.45;5.90;;;;;;;;;;5049289;28;20513;-52
2023/10/14 06:41:52;;;;;;;10.75;7.07;;;;;;;;;;5053870;28;20503;-47
2023/10/14 06:44:20;;;;;;;7.03;6.32;;;;;;;;;;5047069;28;20029;-49
2023/10/14 06:46:45;;;;;;;8.75;6.70;;;;;;;;;;5059346;28;20032;-46
2023/10/14 06:49:13;;;;;;;7.00;6.30;;;;;;;;;;5056395;28;20040;-50
2023/10/14 06:51:42;;;;;;;8.02;5.57;;;;;;;;;;5046806;28;20120;-46
2023/10/14 06:54:09;;;;;;;9.20;6.25;;;;;;;;;;5051655;28;20033;-47
2023/10/14 06:56:36;;;;;;;10.75;5.53;;;;;;;;;;5054665;28;20057;-46
2023/10/14 06:59:01;;;;;;;8.68;6.57;;;;;;;;;;5053868;28;20025;-47
2023/10/14 07:01:28;;;;;;;8.63;6.55;;;;;;;;;;5051525;28;20084;-46
2023/10/14 07:03:54;;;;;;;10.13;5.80;;;;;;;;;;5055547;28;20029;-46
2023/10/14 07:06:21;;;;;;;8.27;5.97;;;;;;;;;;5044971;28;20356;-48
2023/10/14 07:08:48;;;;;;;9.55;6.20;;;;;;;;;;5056434;28;20029;-50
2023/10/14 07:11:15;;;;;;;7.95;5.50;;;;;;;;;;5058287;28;20033;-47
2023/10/14 07:13:42;;;;;;;9.40;8.15;;;;;;;;;;5057692;28;20049;-46
2023/10/14 07:16:08;;;;;;;8.48;5.88;;;;;;;;;;5065920;28;20462;-48
2023/10/14 07:18:36;;;;;;;7.95;6.90;;;;;;;;;;5056529;28;20033;-45
2023/10/14 07:21:03;;;;;;;9.23;7.07;;;;;;;;;;5058379;28;20094;-45
2023/10/14 07:23:34;;;;;;;9.35;6.90;;;;;;;;;;5052170;28;20044;-48
2023/10/14 07:26:15;;;;;;;9.82;6.90;;;;;;;;;;5047949;28;20036;-50
2023/10/14 07:28:42;;;;;;;9.55;5.70;;;;;;;;;;5063041;28;20079;-49
2023/10/14 07:31:10;;;;;;;9.25;5.70;;;;;;;;;;5060113;28;20035;-49
2023/10/14 07:33:37;;;;;;;10.93;6.75;;;;;;;;;;5051726;28;20526;-45
2023/10/14 07:36:06;;;;;;;7.10;6.40;;;;;;;;;;5047442;28;20030;-49
2023/10/14 07:38:34;;;;;;;9.77;6.15;;;;;;;;;;5051504;28;20029;-49
2023/10/14 07:41:01;;;;;;;8.05;6.63;;;;;;;;;;5052193;28;20031;-52
2023/10/14 07:43:26;;;;;;;10.65;6.30;;;;;;;;;;5052480;28;20039;-46
2023/10/14 07:45:52;;;;;;;11.60;7.40;;;;;;;;;;5055264;28;20021;-49
2023/10/14 07:48:19;;;;;;;9.02;6.65;;;;;;;;;;5054803;28;20044;-47
2023/10/14 07:50:47;;;;;;;9.93;6.60;;;;;;;;;;5054920;28;20494;-48
2023/10/14 07:53:15;;;;;;;8.25;6.00;;;;;;;;;;5053959;28;20041;-48
2023/10/14 07:55:47;;;;;;;10.60;7.35;;;;;;;;;;5044356;28;20032;-46
2023/10/14 07:58:14;;;;;;;10.93;7.75;;;;;;;;;;5050820;28;20033;-45
2023/10/14 08:00:48;;;;;;;11.30;7.45;;;;;;;;;;5054593;28;20474;-47
2023/10/14 08:03:16;;;;;;;9.52;7.53;;;;;;;;;;5048451;28;20372;-47
2023/10/14 08:05:44;;;;;;;14.52;8.32;;;;;;;;;;5043911;28;20032;-52
2023/10/14 08:08:10;;;;;;;12.68;8.38;;;;;;;;;;5046959;28;20041;-48
2023/10/14 08:10:43;;;;;;;11.20;6.93;;;;;;;;;;5045214;28;20017;-49
2023/10/14 08:13:12;;;;;;;13.90;7.15;;;;;;;;;;5052687;28;20037;-48
2023/10/14 08:15:38;;;;;;;10.23;7.32;;;;;;;;;;5050912;28;20082;-49
2023/10/14 08:18:07;;;;;;;10.25;7.53;;;;;;;;;;5041377;28;20049;-48
2023/10/14 08:20:33;;;;;;;9.90;7.70;;;;;;;;;;5045908;28;20025;-47
2023/10/14 08:23:00;;;;;;;11.88;7.75;;;;;;;;;;5060767;28;20037;-51
2023/10/14 08:25:25;;;;;;;9.98;7.40;;;;;;;;;;5048753;28;20032;-47
2023/10/14 08:27:53;;;;;;;9.32;7.97;;;;;;;;;;5053651;28;20132;-48
2023/10/14 08:30:24;;;;;;;6.88;6.18;;;;;;;;;;5051146;28;20021;-48
2023/10/14 08:32:51;;;;;;;8.43;6.38;;;;;;;;;;5045667;28;20040;-48
2023/10/14 08:35:17;;;;;;;11.60;7.95;;;;;;;;;;5052632;28;20041;-51
2023/10/14 08:37:50;;;;;;;9.90;7.93;;;;;;;;;;5048320;28;20102;-49
2023/10/14 08:40:26;;;;;;;9.60;8.18;;;;;;;;;;5051435;28;20032;-48
2023/10/14 08:42:57;;;;;;;10.75;7.80;;;;;;;;;;5063849;28;20091;-50
2023/10/14 08:45:26;;;;;;;12.70;8.50;;;;;;;;;;5052426;28;20067;-46
2023/10/14 08:47:54;;;;;;;12.48;8.65;;;;;;;;;;5051482;28;20036;-51
2023/10/14 08:50:29;;;;;;;;;;;;;;;;;;5057942;28;20789;-46
2023/10/14 08:52:56;;;;;;;12.05;7.70;;;;;;;;;;5049881;28;20662;-51
2023/10/14 08:55:22;;;;;;;13.38;7.85;;;;;;;;;;5052848;28;20036;-49
2023/10/14 08:57:49;;;;;;;10.88;8.95;;;;;;;;;;5053708;28;20665;-51
2023/10/14 09:00:20;;;;;;;12.43;8.43;;;;;;;;;;5045847;28;20114;-49
2023/10/14 09:02:53;;;;;;;10.55;7.78;;;;;;;;;;5047420;28;20061;-53
2023/10/14 09:05:20;;;;;;;11.55;8.18;;;;;;;;;;5054096;28;20031;-49
2023/10/14 09:07:50;;;;;;;14.20;10.50;;;;;;;;;;5044149;28;20675;-48
2023/10/14 09:10:18;;;;;;;18.80;10.48;;;;;;;;;;5049179;28;20021;-49
2023/10/14 09:13:04;;;;;;;12.88;9.13;;;;;;;;;;5056644;28;20498;-48
2023/10/14 09:15:32;;;;;;;9.85;8.40;;;;;;;;;;5045936;28;20029;-47
2023/10/14 09:17:58;;;;;;;10.65;7.75;;;;;;;;;;5041774;28;20399;-48
2023/10/14 09:20:38;;;;;;;9.63;8.60;;;;;;;;;;5046069;28;20036;-49
2023/10/14 09:23:11;;;;;;;18.90;12.43;;;;;;;;;;5047698;28;20037;-46
2023/10/14 09:25:41;;;;;;;15.75;9.88;;;;;;;;;;5054239;28;21996;-51
2023/10/14 09:28:07;;;;;;;15.55;9.60;;;;;;;;;;5059809;28;20048;-49
2023/10/14 09:30:32;;;;;;;13.45;9.48;;;;;;;;;;5053030;28;20037;-49
2023/10/14 09:32:58;;;;;;;14.60;10.40;;;;;;;;;;5052232;28;20079;-46
2023/10/14 09:35:29;;;;;;;12.13;8.85;;;;;;;;;;5047533;28;20186;-49
2023/10/14 09:37:55;;;;;;;12.70;7.28;;;;;;;;;;5054572;28;20045;-47
2023/10/14 09:40:21;;;;;;;9.18;6.90;;;;;;;;;;5060099;28;20070;-51
2023/10/14 09:42:48;;;;;;;12.73;7.53;;;;;;;;;;5060574;28;20072;-46
2023/10/14 09:45:19;;;;;;;9.82;6.78;;;;;;;;;;5057296;28;20036;-51
2023/10/14 09:47:45;;;;;;;11.20;8.40;;;;;;;;;;5053980;28;20068;-47
2023/10/14 09:50:13;;;;;;;10.27;7.35;;;;;;;;;;5052969;28;20024;-47
2023/10/14 09:52:42;;;;;;;9.68;6.50;;;;;;;;;;5045557;28;20417;-46
2023/10/14 09:55:13;;;;;;;9.32;6.80;;;;;;;;;;5053198;28;20031;-47
2023/10/14 09:57:43;;;;;;;6.53;5.80;;;;;;;;;;5048001;28;20048;-48
2023/10/14 10:00:10;;;;;;;10.95;7.72;;;;;;;;;;5053275;28;20024;-51
2023/10/14 10:02:38;;;;;;;13.50;7.30;;;;;;;;;;5046145;28;20409;-48
2023/10/14 10:05:07;;;;;;;8.05;6.57;;;;;;;;;;5055846;28;20028;-47
2023/10/14 10:07:57;;;;;;;9.85;6.40;;;;;;;;;;5057069;28;20108;-51
2023/10/14 10:10:28;;;;;;;7.82;6.60;;;;;;;;;;5059327;28;20029;-46
2023/10/14 10:12:55;;;;;;;9.50;6.03;;;;;;;;;;5048907;28;20487;-46
2023/10/14 10:15:24;;;;;;;7.38;6.38;;;;;;;;;;5058250;28;20044;-49
2023/10/14 10:18:16;;;;;;;8.23;6.18;;;;;;;;;;5046798;28;20478;-48
2023/10/14 10:20:55;;;;;;;12.95;5.80;;;;;;;;;;5053122;28;20529;-49
2023/10/14 10:23:23;;;;;;;9.18;7.20;;;;;;;;;;5048142;28;20555;-47
2023/10/14 10:25:50;;;;;;;9.10;7.18;;;;;;;;;;5053290;28;20773;-49
2023/10/14 10:28:28;;;;;;;7.25;6.47;;;;;;;;;;5059897;28;20045;-48
2023/10/14 10:31:04;;;;;;;8.80;5.97;;;;;;;;;;5046597;28;20103;-47
2023/10/14 10:33:52;;;;;;;9.77;7.25;;;;;;;;;;5053633;28;20041;-51
2023/10/14 10:36:24;;;;;;;9.43;6.93;;;;;;;;;;5052077;28;20037;-49
2023/10/14 10:38:53;;;;;;;14.63;7.25;;;;;;;;;;5053222;28;20025;-49
2023/10/14 10:41:26;;;;;;;9.98;7.07;;;;;;;;;;5051080;28;20033;-50
2023/10/14 10:44:02;;;;;;;9.00;5.85;;;;;;;;;;5056907;28;20134;-48
2023/10/14 10:46:37;;;;;;;11.60;7.00;;;;;;;;;;5049815;28;20022;-47
2023/10/14 10:49:06;;;;;;;6.90;5.35;;;;;;;;;;5055967;28;20367;-49
2023/10/14 10:51:32;;;;;;;7.45;5.60;;;;;;;;;;5054941;28;20048;-48
2023/10/14 10:53:59;;;;;;;8.32;6.00;;;;;;;;;;5050412;28;20430;-49
2023/10/14 10:56:28;;;;;;;8.65;5.57;;;;;;;;;;5057034;28;20029;-48
2023/10/14 10:58:54;;;;;;;8.98;6.25;;;;;;;;;;5050561;28;20056;-50
2023/10/14 11:01:20;;;;;;;7.85;6.78;;;;;;;;;;5060259;28;20486;-49
2023/10/14 11:03:45;;;;;;;9.45;5.88;;;;;;;;;;5050595;28;20035;-49
2023/10/14 11:06:13;;;;;;;6.78;5.43;;;;;;;;;;5056684;28;20021;-48
2023/10/14 11:08:40;;;;;;;8.02;5.30;;;;;;;;;;5055896;28;20108;-48
2023/10/14 11:11:07;;;;;;;8.82;5.35;;;;;;;;;;5049218;28;20112;-50
2023/10/14 11:13:36;;;;;;;9.25;6.03;;;;;;;;;;5050407;28;20034;-49
2023/10/14 11:16:11;;;;;;;9.73;5.10;;;;;;;;;;5052599;28;20025;-50
2023/10/14 11:18:46;;;;;;;7.65;5.90;;;;;;;;;;5047179;28;20132;-48
2023/10/14 11:21:12;;;;;;;9.70;7.22;;;;;;;;;;5053056;28;20032;-49
2023/10/14 11:23:39;;;;;;;10.27;7.07;;;;;;;;;;5057323;28;20165;-46
2023/10/14 11:26:09;;;;;;;9.35;6.20;;;;;;;;;;5049425;28;20044;-49
2023/10/14 11:28:37;;;;;;;6.45;5.13;;;;;;;;;;5053782;28;20037;-48
2023/10/14 11:31:07;;;;;;;8.05;5.40;;;;;;;;;;5051097;28;20098;-48
2023/10/14 11:33:35;;;;;;;7.30;6.70;;;;;;;;;;5054404;28;20039;-48
2023/10/14 11:36:02;;;;;;;7.78;5.57;;;;;;;;;;5052829;28;20029;-48
2023/10/14 11:38:30;;;;;;;8.02;4.93;;;;;;;;;;5056374;28;20051;-45
2023/10/14 11:40:58;;;;;;;8.18;5.53;;;;;;;;;;5058811;28;20029;-48
2023/10/14 11:43:24;;;;;;;6.00;4.70;;;;;;;;;;5063678;28;20489;-47
2023/10/14 11:45:51;;;;;;;8.52;6.25;;;;;;;;;;5051556;28;20025;-48
2023/10/14 11:48:24;;;;;;;8.43;5.95;;;;;;;;;;5056973;28;20037;-49
2023/10/14 11:51:03;;;;;;;7.85;6.88;;;;;;;;;;5052932;28;20036;-47
2023/10/14 11:53:32;;;;;;;11.18;6.55;;;;;;;;;;5054621;28;20407;-50
2023/10/14 11:56:04;;;;;;;7.07;6.00;;;;;;;;;;5056280;28;20052;-53
2023/10/14 11:58:37;;;;;;;7.93;5.97;;;;;;;;;;5059268;28;20071;-51
2023/10/14 12:01:05;;;;;;;6.10;5.03;;;;;;;;;;5060504;28;20028;-50
2023/10/14 12:03:31;;;;;;;8.77;6.43;;;;;;;;;;5055367;28;20507;-46
2023/10/14 12:05:58;;;;;;;7.85;6.28;;;;;;;;;;5052689;28;20048;-48
2023/10/14 12:08:36;;;;;;;9.45;5.80;;;;;;;;;;5054019;28;20044;-48
2023/10/14 12:11:03;;;;;;;8.82;5.53;;;;;;;;;;5050852;28;20063;-51
2023/10/14 12:13:29;;;;;;;8.00;5.10;;;;;;;;;;5038715;28;20073;-48
2023/10/14 12:15:55;;;;;;;7.22;6.25;;;;;;;;;;5056809;28;20021;-48
2023/10/14 12:18:21;;;;;;;8.40;4.70;;;;;;;;;;5052114;28;20045;-49
2023/10/14 12:20:48;;;;;;;11.45;6.28;;;;;;;;;;5048755;28;20099;-51
2023/10/14 12:23:18;;;;;;;10.27;5.45;;;;;;;;;;5042741;28;20048;-47
2023/10/14 12:25:46;;;;;;;4.85;4.35;;;;;;;;;;5056567;28;20037;-49
2023/10/14 12:28:25;;;;;;;10.93;5.75;;;;;;;;;;5059488;28;20037;-48
2023/10/14 12:30:58;;;;;;;6.22;4.20;;;;;;;;;;5057457;28;20111;-47
2023/10/14 12:33:35;;;;;;;7.32;4.93;;;;;;;;;;5052525;28;20069;-49
2023/10/14 12:36:13;;;;;;;4.28;3.70;;;;;;;;;;5052179;28;20506;-51
2023/10/14 12:38:42;;;;;;;8.07;3.70;;;;;;;;;;5054028;28;20382;-49
2023/10/14 12:41:09;;;;;;;7.85;4.05;;;;;;;;;;5051594;28;20059;-47
2023/10/14 12:43:39;;;;;;;5.55;4.00;;;;;;;;;;5063087;28;20407;-47
2023/10/14 12:46:09;;;;;;;6.97;3.55;;;;;;;;;;5056169;28;20096;-49
2023/10/14 12:48:39;;;;;;;7.05;4.88;;;;;;;;;;5049041;28;20363;-48
2023/10/14 12:51:11;;;;;;;6.65;5.78;;;;;;;;;;5058014;28;20036;-47
2023/10/14 12:53:37;;;;;;;8.57;4.40;;;;;;;;;;5064874;28;20402;-49
2023/10/14 12:56:03;;;;;;;6.15;3.15;;;;;;;;;;5054346;28;20032;-46
2023/10/14 12:58:29;;;;;;;5.78;3.78;;;;;;;;;;5056531;28;20033;-50
2023/10/14 13:00:56;;;;;;;8.48;3.15;;;;;;;;;;5055195;28;20034;-50
2023/10/14 13:03:23;;;;;;;7.35;3.95;;;;;;;;;;5049211;28;20411;-48
2023/10/14 13:05:52;;;;;;;6.60;4.35;;;;;;;;;;5048421;28;20033;-47
2023/10/14 13:08:19;;;;;;;7.50;3.25;;;;;;;;;;5044182;28;20052;-45
2023/10/14 13:10:45;;;;;;;7.13;3.28;;;;;;;;;;5048469;28;20029;-49
2023/10/14 13:13:13;;;;;;;4.45;3.13;;;;;;;;;;5057765;28;20039;-47
2023/10/14 13:15:39;;;;;;;4.38;3.30;;;;;;;;;;5053207;28;20032;-49
2023/10/14 13:18:05;;;;;;;5.40;3.90;;;;;;;;;;5046451;28;20725;-48
2023/10/14 13:20:35;;;;;;;7.90;3.95;;;;;;;;;;5047785;28;20898;-50
2023/10/14 13:23:05;;;;;;;5.97;3.75;;;;;;;;;;5048714;28;20196;-49
2023/10/14 13:25:36;;;;;;;4.78;3.15;;;;;;;;;;5051430;28;20247;-48
2023/10/14 13:28:07;;;;;;;7.85;4.10;;;;;;;;;;5048841;28;20051;-47
2023/10/14 13:30:33;;;;;;;6.45;3.60;;;;;;;;;;5052152;28;20021;-49
2023/10/14 13:32:59;;;;;;;6.10;4.20;;;;;;;;;;5050688;28;20033;-48
2023/10/14 13:35:25;;;;;;;5.72;4.55;;;;;;;;;;5056083;28;20048;-48
2023/10/14 13:37:50;;;;;;;6.65;4.80;;;;;;;;;;5050871;28;20045;-48
2023/10/14 13:40:23;;;;;;;7.55;4.32;;;;;;;;;;5053428;28;20099;-51
2023/10/14 13:42:53;;;;;;;5.93;4.22;;;;;;;;;;5054848;28;20431;-50
2023/10/14 13:45:21;;;;;;;6.43;3.72;;;;;;;;;;5053018;28;20039;-51
2023/10/14 13:47:48;;;;;;;6.18;4.13;;;;;;;;;;5063860;28;20040;-49
2023/10/14 13:50:20;;;;;;;5.65;4.35;;;;;;;;;;5048402;28;20033;-51
2023/10/14 13:52:55;;;;;;;4.43;3.90;;;;;;;;;;5060216;28;20056;-48
2023/10/14 13:55:24;;;;;;;5.75;4.38;;;;;;;;;;5053222;28;20036;-51
2023/10/14 13:57:51;;;;;;;4.65;4.25;;;;;;;;;;5056517;28;20091;-46
2023/10/14 14:00:40;;;;;;;7.63;4.75;;;;;;;;;;5058115;28;20036;-47
2023/10/14 14:03:07;;;;;;;8.32;4.63;;;;;;;;;;5050602;28;20044;-46
2023/10/14 14:05:35;;;;;;;6.03;4.60;;;;;;;;;;5053544;28;20098;-48
2023/10/14 14:08:07;;;;;;;7.50;4.00;;;;;;;;;;5063077;28;20571;-50
2023/10/14 14:10:34;;;;;;;5.47;4.28;;;;;;;;;;5053140;28;20035;-52
2023/10/14 14:13:02;;;;;;;5.47;3.88;;;;;;;;;;5053401;28;20562;-47
2023/10/14 14:15:28;;;;;;;5.72;4.18;;;;;;;;;;5054157;28;20112;-47
2023/10/14 14:17:57;;;;;;;6.13;4.65;;;;;;;;;;5055159;28;20068;-46
2023/10/14 14:20:24;;;;;;;6.90;3.63;;;;;;;;;;5054205;28;20021;-50
2023/10/14 14:22:55;;;;;;;7.13;3.95;;;;;;;;;;5056420;28;20041;-47
2023/10/14 14:25:25;;;;;;;4.30;3.47;;;;;;;;;;5057783;28;20094;-51
2023/10/14 14:27:52;;;;;;;7.13;2.80;;;;;;;;;;5053326;28;20048;-48
2023/10/14 14:30:18;;;;;;;6.40;3.55;;;;;;;;;;5052926;28;20041;-47
2023/10/14 14:32:43;;;;;;;4.90;2.55;;;;;;;;;;5063284;28;20090;-48
2023/10/14 14:35:09;;;;;;;3.75;2.78;;;;;;;;;;5056169;28;20031;-47
2023/10/14 14:37:37;;;;;;;4.10;2.67;;;;;;;;;;5054978;28;20051;-50
2023/10/14 14:40:12;;;;;;;3.83;2.85;;;;;;;;;;5055380;28;20028;-47
2023/10/14 14:42:40;;;;;;;7.47;3.35;;;;;;;;;;5060576;28;20068;-50
2023/10/14 14:45:09;;;;;;;4.10;3.70;;;;;;;;;;5056325;28;20036;-49
2023/10/14 14:47:36;;;;;;;4.72;3.60;;;;;;;;;;5053509;28;20118;-47
2023/10/14 14:50:01;;;;;;;5.47;2.70;;;;;;;;;;5053845;28;20025;-47
2023/10/14 14:52:27;;;;;;;3.78;2.55;;;;;;;;;;5054388;28;20586;-45
2023/10/14 14:54:54;;;;;;;3.47;2.53;;;;;;;;;;5057913;28;20116;-47
2023/10/14 14:57:20;;;;;;;4.63;2.55;;;;;;;;;;5050803;28;20064;-50
2023/10/14 14:59:46;;;;;;;2.30;1.45;;;;;;;;;;5047515;28;20033;-50
2023/10/14 15:02:11;;;;;;;7.10;3.05;;;;;;;;;;5047292;28;20037;-48
2023/10/14 15:04:38;;;;;;;3.58;1.80;;;;;;;;;;5058542;28;20533;-47
2023/10/14 15:07:04;;;;;;;3.08;2.25;;;;;;;;;;5056211;28;20052;-53
2023/10/14 15:09:29;;;;;;;4.85;2.25;;;;;;;;;;5058832;28;20110;-48
2023/10/14 15:11:55;;;;;;;3.63;2.80;;;;;;;;;;5056250;28;20025;-49
2023/10/14 15:14:21;;;;;;;4.72;2.58;;;;;;;;;;5060225;28;20501;-46
2023/10/14 15:16:47;;;;;;;3.83;2.15;;;;;;;;;;5049847;28;20093;-50
2023/10/14 15:19:15;;;;;;;5.05;2.55;;;;;;;;;;5055587;28;20554;-51